Time;durP1;ratioP1;P1;durP2;ratioP2;P2;SDS_P1;SDS_P2;PMS_P1;PMS_P2;Temp;Humidity;BMP_temperature;BMP_pressure;BME280_temperature;BME280_humidity;BME280_pressure;Samples;Min_cycle;Max_cycle;Signal;HPM_P1;HPM_P2
2023/01/21 00:00:13;;;;;;;15.83;9.40;;;5.10;99.90;;;4.98;69.18;94373.50;5042432;28;20909;-56
2023/01/21 00:02:40;;;;;;;13.60;10.30;;;5.20;99.90;;;4.94;69.29;94362.50;5040042;28;20549;-57
2023/01/21 00:05:09;;;;;;;13.10;10.10;;;5.10;99.90;;;4.95;69.54;94373.75;5044855;28;20460;-56
2023/01/21 00:07:36;;;;;;;11.53;8.47;;;5.10;99.90;;;4.95;69.16;94368.53;5043846;28;20503;-56
2023/01/21 00:10:04;;;;;;;13.13;9.33;;;5.10;99.90;;;4.95;69.32;94379.78;5045815;28;20575;-57
2023/01/21 00:12:32;;;;;;;10.20;8.53;;;5.10;99.90;;;4.93;69.38;94386.91;5045208;28;20523;-57
2023/01/21 00:14:59;;;;;;;14.17;9.47;;;5.10;99.90;;;4.92;68.93;94374.81;5045757;28;20998;-57
2023/01/21 00:17:26;;;;;;;15.23;9.10;;;5.10;99.90;;;4.88;69.02;94373.41;5044179;28;20464;-54
2023/01/21 00:19:53;;;;;;;14.53;8.27;;;5.00;99.90;;;4.83;69.76;94378.97;5046322;28;20440;-55
2023/01/21 00:22:22;;;;;;;11.97;8.63;;;5.00;99.90;;;4.78;69.22;94385.47;5045799;28;20989;-56
2023/01/21 00:24:49;;;;;;;8.73;7.80;;;5.00;99.90;;;4.77;69.14;94374.22;5045432;28;20483;-56
2023/01/21 00:27:16;;;;;;;12.00;8.40;;;4.90;99.90;;;4.79;69.50;94371.50;5044278;28;20448;-57
2023/01/21 00:29:44;;;;;;;11.57;9.00;;;4.90;99.90;;;4.79;69.46;94381.91;5046142;28;20510;-57
2023/01/21 00:32:11;;;;;;;14.77;9.70;;;5.00;99.90;;;4.79;69.50;94394.94;5043402;28;20977;-57
2023/01/21 00:34:38;;;;;;;13.50;8.90;;;5.00;99.90;;;4.75;69.64;94383.09;5045386;28;20492;-55
2023/01/21 00:37:06;;;;;;;16.37;10.50;;;4.90;99.90;;;4.70;69.83;94377.41;5045863;28;20462;-54
2023/01/21 00:39:35;;;;;;;11.00;8.70;;;4.90;99.90;;;4.64;69.82;94376.91;5045950;28;20529;-57
2023/01/21 00:42:03;;;;;;;13.63;10.40;;;4.80;99.90;;;4.61;69.96;94373.72;5045765;28;20952;-56
2023/01/21 00:44:30;;;;;;;17.33;9.77;;;4.80;99.90;;;4.56;70.10;94368.84;5044688;28;20471;-58
2023/01/21 00:46:57;;;;;;;15.37;8.50;;;4.70;99.90;;;4.52;70.07;94366.59;5041115;28;21469;-57
2023/01/21 00:49:25;;;;;;;9.60;8.57;;;4.70;99.90;;;4.48;70.04;94379.84;5042622;28;20482;-57
2023/01/21 00:51:52;;;;;;;10.07;8.80;;;4.70;99.90;;;4.44;70.30;94381.00;5042977;28;20768;-57
2023/01/21 00:54:19;;;;;;;11.90;8.90;;;4.70;99.90;;;4.37;70.55;94361.59;5043839;28;20507;-56
2023/01/21 00:56:48;;;;;;;10.53;8.40;;;4.60;99.90;;;4.34;70.68;94366.19;5043119;28;20464;-57
2023/01/21 00:59:15;;;;;;;10.93;9.20;;;4.60;99.90;;;4.32;70.23;94376.72;5043001;28;20487;-56
2023/01/21 01:01:42;;;;;;;14.73;10.53;;;4.50;99.90;;;4.34;70.86;94376.59;5041146;28;20549;-57
2023/01/21 01:04:11;;;;;;;11.73;9.30;;;4.50;99.90;;;4.41;70.89;94385.63;5043324;28;20582;-56
2023/01/21 01:06:38;;;;;;;12.27;8.40;;;4.60;99.90;;;4.46;71.05;94383.50;5043111;28;20471;-55
2023/01/21 01:09:05;;;;;;;13.23;9.50;;;4.60;99.90;;;4.49;70.63;94378.06;5043679;28;20483;-55
2023/01/21 01:11:32;;;;;;;10.60;9.03;;;4.70;99.90;;;4.55;70.74;94382.81;5043669;28;20545;-58
2023/01/21 01:14:01;;;;;;;11.60;8.90;;;4.70;99.90;;;4.59;70.47;94378.22;5043473;28;20503;-56
2023/01/21 01:16:28;;;;;;;12.83;9.77;;;4.70;99.90;;;4.62;70.27;94370.16;5044104;28;20448;-56
2023/01/21 01:18:56;;;;;;;18.07;10.10;;;4.80;99.90;;;4.65;70.42;94364.72;5044725;28;20534;-55
2023/01/21 01:21:23;;;;;;;20.03;11.00;;;4.80;99.90;;;4.68;70.66;94372.31;5043254;28;20447;-56
2023/01/21 01:23:53;;;;;;;18.60;11.33;;;4.80;99.90;;;4.67;70.15;94381.88;5045497;28;20471;-55
2023/01/21 01:26:21;;;;;;;17.40;11.37;;;4.80;99.90;;;4.64;70.21;94394.31;5041616;28;20523;-56
2023/01/21 01:28:48;;;;;;;15.57;10.63;;;4.80;99.90;;;4.64;70.62;94371.69;5042687;28;20885;-55
2023/01/21 01:31:18;;;;;;;19.07;12.30;;;4.80;99.90;;;4.64;70.63;94369.09;5040880;28;20456;-55
2023/01/21 01:33:45;;;;;;;17.63;11.70;;;4.80;99.90;;;4.64;70.78;94361.28;5042862;28;20495;-56
2023/01/21 01:36:13;;;;;;;15.63;11.13;;;4.80;99.90;;;4.65;70.52;94360.34;5043457;28;20510;-57
2023/01/21 01:38:41;;;;;;;17.33;11.50;;;4.80;99.90;;;4.66;70.59;94354.19;5044195;28;20502;-56
2023/01/21 01:41:08;;;;;;;13.30;9.57;;;4.80;99.90;;;4.69;70.32;94344.47;5044328;28;20456;-57
2023/01/21 01:43:58;;;;;;;17.37;10.23;;;4.80;99.90;;;4.68;70.51;94351.47;5044661;28;20479;-58
2023/01/21 01:46:28;;;;;;;15.37;10.23;;;4.80;99.90;;;4.66;70.34;94333.34;5035765;28;20452;-57
2023/01/21 01:49:01;;;;;;;16.00;9.47;;;4.80;99.90;;;4.63;70.55;94338.81;5044658;28;20522;-56
2023/01/21 01:51:34;;;;;;;10.93;9.53;;;4.80;99.90;;;4.63;70.28;94325.78;5044392;28;20497;-58
2023/01/21 01:54:02;;;;;;;10.53;8.63;;;4.80;99.90;;;4.60;70.68;94323.41;5043776;28;20501;-54
2023/01/21 01:56:29;;;;;;;15.70;9.23;;;4.80;99.90;;;4.57;70.43;94320.19;5044095;28;20490;-54
2023/01/21 01:58:56;;;;;;;9.83;8.80;;;4.70;99.90;;;4.54;70.53;94330.84;5044274;28;20995;-56
2023/01/21 02:01:23;;;;;;;11.30;9.00;;;4.70;99.90;;;4.52;70.47;94317.94;5046308;28;20555;-55
2023/01/21 02:03:58;;;;;;;15.20;9.40;;;4.70;99.90;;;4.51;70.73;94308.47;5042082;28;20480;-56
2023/01/21 02:06:25;;;;;;;9.70;8.00;;;4.70;99.90;;;4.47;70.50;94317.47;5048171;28;20962;-56
2023/01/21 02:08:52;;;;;;;11.93;9.73;;;4.70;99.90;;;4.44;70.36;94312.50;5049162;28;20471;-55
2023/01/21 02:11:20;;;;;;;10.60;8.47;;;4.60;99.90;;;4.40;70.75;94311.91;5047349;28;21296;-54
2023/01/21 02:13:50;;;;;;;9.67;8.60;;;4.60;99.90;;;4.40;70.94;94311.06;5047909;28;20514;-57
2023/01/21 02:16:51;;;;;;;13.40;9.67;;;4.60;99.90;;;4.42;70.68;94306.59;5046478;28;20540;-55
2023/01/21 02:19:50;;;;;;;8.77;7.80;;;4.60;99.90;;;4.43;70.82;94310.81;5044706;28;20489;-58
2023/01/21 02:22:23;;;;;;;11.57;8.90;;;4.60;99.90;;;4.42;70.94;94303.97;5044874;28;20570;-56
2023/01/21 02:25:31;;;;;;;15.60;8.80;;;4.60;99.90;;;4.44;71.18;94289.06;5051055;28;20939;-56
2023/01/21 02:28:35;;;;;;;13.03;9.60;;;4.60;99.90;;;4.48;70.96;94293.91;5048871;28;20470;-57
2023/01/21 02:31:48;;;;;;;11.37;8.40;;;4.60;99.90;;;4.52;71.05;94284.09;5028706;28;20454;-55
2023/01/21 02:34:22;;;;;;;10.03;8.27;;;4.70;99.90;;;4.55;70.76;94262.19;4966613;28;20506;-57
2023/01/21 02:37:00;;;;;;;10.77;8.13;;;4.70;99.90;;;4.55;70.81;94264.81;5032570;28;20448;-56
2023/01/21 02:39:36;;;;;;;12.37;9.63;;;4.70;99.90;;;4.54;70.76;94265.72;5046356;28;20478;-57
2023/01/21 02:42:07;;;;;;;12.00;8.50;;;4.70;99.90;;;4.55;70.74;94257.81;5049150;28;20448;-55
2023/01/21 02:44:39;;;;;;;8.43;7.23;;;4.70;99.90;;;4.55;70.37;94272.59;5048325;28;21124;-55
2023/01/21 02:47:18;;;;;;;8.77;7.87;;;4.70;99.90;;;4.50;70.45;94265.16;5044541;28;20958;-56
2023/01/21 02:49:49;;;;;;;9.27;8.27;;;4.70;99.90;;;4.45;70.60;94278.53;5046239;28;20436;-55
2023/01/21 02:52:19;;;;;;;9.43;7.33;;;4.60;99.90;;;4.48;70.61;94280.06;5047550;28;20451;-55
2023/01/21 02:54:50;;;;;;;9.80;7.33;;;4.60;99.90;;;4.51;71.23;94261.59;5048027;28;20487;-56
2023/01/21 02:57:20;;;;;;;12.00;7.57;;;4.70;99.90;;;4.54;70.81;94269.19;5047900;28;20650;-56
2023/01/21 02:59:49;;;;;;;8.73;7.50;;;4.70;99.90;;;4.51;70.77;94253.81;5048334;28;20505;-56
2023/01/21 03:02:23;;;;;;;11.43;8.00;;;4.70;99.90;;;4.44;71.22;94265.63;5048561;28;20452;-56
2023/01/21 03:04:56;;;;;;;9.03;8.13;;;4.60;99.90;;;4.41;70.85;94252.84;5045322;28;20510;-57
2023/01/21 03:07:27;;;;;;;9.23;8.30;;;4.60;99.90;;;4.42;70.99;94252.72;5047892;28;21047;-55
2023/01/21 03:09:55;;;;;;;11.97;7.93;;;4.60;99.90;;;4.45;70.82;94255.09;5048054;28;20527;-56
2023/01/21 03:12:31;;;;;;;10.83;9.60;;;4.60;99.90;;;4.48;71.00;94235.81;5047737;28;20452;-56
2023/01/21 03:17:52;;;;;;;13.13;9.10;;;4.70;99.90;;;4.48;70.76;94241.00;5047871;28;20463;-55
2023/01/21 03:20:24;;;;;;;13.77;10.10;;;4.60;99.90;;;4.47;71.41;94234.13;5049879;28;20987;-55
2023/01/21 03:22:53;;;;;;;9.70;8.70;;;4.70;99.90;;;4.50;71.09;94233.91;5044614;28;20476;-57
2023/01/21 03:25:20;;;;;;;14.27;8.30;;;4.70;99.90;;;4.48;70.83;94233.22;5044018;28;21051;-57
2023/01/21 03:27:47;;;;;;;12.17;10.10;;;4.70;99.90;;;4.45;71.25;94231.66;5047634;28;20483;-56
2023/01/21 03:30:17;;;;;;;10.67;8.30;;;4.70;99.90;;;4.46;71.25;94242.88;5047982;28;20459;-57
2023/01/21 03:32:46;;;;;;;12.77;8.77;;;4.60;99.90;;;4.47;71.62;94221.13;5047813;28;20507;-55
2023/01/21 03:35:16;;;;;;;9.53;8.43;;;4.60;99.90;;;4.48;71.12;94235.81;5047942;28;20934;-55
2023/01/21 03:37:47;;;;;;;9.67;7.50;;;4.60;99.90;;;4.45;70.98;94223.03;5047191;28;20579;-57
2023/01/21 03:40:20;;;;;;;11.50;7.23;;;4.60;99.90;;;4.42;71.19;94202.44;5047455;28;21038;-56
2023/01/21 03:42:49;;;;;;;7.43;6.50;;;4.60;99.90;;;4.37;71.11;94186.31;5047557;28;20992;-55
2023/01/21 03:45:16;;;;;;;9.23;7.80;;;4.60;99.90;;;4.33;70.98;94208.34;5047743;28;20835;-56
2023/01/21 03:47:49;;;;;;;10.40;7.53;;;4.60;99.90;;;4.30;70.91;94212.81;5047022;28;20467;-56
2023/01/21 03:50:18;;;;;;;8.37;6.87;;;4.50;99.90;;;4.26;70.99;94201.00;5046947;28;20447;-54
2023/01/21 03:52:46;;;;;;;7.60;6.83;;;4.50;99.90;;;4.27;71.53;94199.22;5043218;28;20565;-55
2023/01/21 03:55:14;;;;;;;8.73;7.87;;;4.50;99.90;;;4.28;71.40;94211.31;5046051;28;20523;-57
2023/01/21 03:57:42;;;;;;;10.93;9.27;;;4.50;99.90;;;4.29;71.47;94195.56;5047035;28;20468;-55
2023/01/21 04:00:11;;;;;;;12.67;9.03;;;4.50;99.90;;;4.29;71.26;94200.78;5047155;28;20475;-56
2023/01/21 04:02:38;;;;;;;12.63;9.07;;;4.50;99.90;;;4.30;71.13;94205.00;5047130;28;20476;-56
2023/01/21 04:05:06;;;;;;;15.43;11.43;;;4.50;99.90;;;4.30;71.01;94218.03;5047284;28;20968;-56
2023/01/21 04:07:34;;;;;;;9.93;8.57;;;4.50;99.90;;;4.29;71.37;94216.41;5045512;28;20448;-55
2023/01/21 04:10:02;;;;;;;12.47;8.23;;;4.50;99.90;;;4.30;71.20;94196.38;5044646;28;20468;-56
2023/01/21 04:12:30;;;;;;;10.27;9.20;;;4.50;99.90;;;4.31;70.91;94193.66;5047032;28;20821;-56
2023/01/21 04:14:57;;;;;;;11.60;8.57;;;4.50;99.90;;;4.27;70.95;94207.03;5046821;28;20488;-56
2023/01/21 04:17:24;;;;;;;13.80;7.57;;;4.50;99.90;;;4.19;71.40;94215.44;5046760;28;20527;-57
2023/01/21 04:19:52;;;;;;;8.07;7.27;;;4.40;99.90;;;4.14;71.48;94194.16;5046937;28;20456;-56
2023/01/21 04:22:19;;;;;;;9.60;7.57;;;4.40;99.90;;;4.12;71.25;94177.81;5045850;28;20517;-55
2023/01/21 04:24:46;;;;;;;10.60;8.40;;;4.30;99.90;;;4.15;71.65;94184.56;5046260;28;20992;-56
2023/01/21 04:27:15;;;;;;;10.00;9.00;;;4.30;99.90;;;4.15;71.75;94206.19;5046195;28;20820;-55
2023/01/21 04:29:42;;;;;;;9.53;8.17;;;4.30;99.90;;;4.16;71.64;94194.84;5046886;28;20448;-54
2023/01/21 04:32:09;;;;;;;10.10;8.00;;;4.30;99.90;;;4.19;71.57;94186.81;5046537;28;20459;-57
2023/01/21 04:34:37;;;;;;;9.00;7.87;;;4.30;99.90;;;4.21;71.57;94182.31;5046703;28;20491;-57
2023/01/21 04:37:04;;;;;;;8.90;7.93;;;4.40;99.90;;;4.25;71.65;94203.72;5046064;28;20460;-56
2023/01/21 04:39:31;;;;;;;10.73;9.03;;;4.40;99.90;;;4.27;71.31;94226.06;5046298;28;20475;-56
2023/01/21 04:41:58;;;;;;;11.47;8.70;;;4.40;99.90;;;4.32;71.77;94212.72;5046025;28;20459;-56
2023/01/21 04:44:27;;;;;;;9.70;8.70;;;4.50;99.90;;;4.35;71.18;94229.88;5046167;28;20537;-56
2023/01/21 04:46:54;;;;;;;8.93;8.03;;;4.50;99.90;;;4.38;71.39;94225.25;5046167;28;20502;-57
2023/01/21 04:49:21;;;;;;;7.37;6.70;;;4.50;99.90;;;4.41;71.18;94237.22;5046158;28;20553;-57
2023/01/21 04:51:49;;;;;;;10.23;7.90;;;4.60;99.90;;;4.43;71.21;94248.34;5045411;28;20451;-55
2023/01/21 04:54:16;;;;;;;9.03;7.43;;;4.60;99.90;;;4.44;71.12;94244.78;5045658;28;20472;-56
2023/01/21 04:56:43;;;;;;;8.77;7.50;;;4.60;99.90;;;4.47;71.29;94244.56;5045718;28;20866;-57
2023/01/21 04:59:11;;;;;;;14.73;8.60;;;4.60;99.90;;;4.48;70.84;94233.22;5045573;28;20483;-57
2023/01/21 05:01:40;;;;;;;8.53;7.57;;;4.60;99.90;;;4.48;70.90;94238.41;5043455;28;20999;-55
2023/01/21 05:04:07;;;;;;;10.13;8.70;;;4.60;99.90;;;4.46;70.50;94248.94;5044911;28;20902;-56
2023/01/21 05:06:34;;;;;;;9.43;8.50;;;4.60;99.90;;;4.48;70.75;94256.63;5042424;28;20861;-57
2023/01/21 05:09:01;;;;;;;9.20;8.13;;;4.70;99.90;;;4.45;70.84;94260.28;5045582;28;20537;-56
2023/01/21 05:11:29;;;;;;;12.70;9.83;;;4.60;99.90;;;4.45;70.60;94264.69;5045810;28;20816;-56
2023/01/21 05:13:56;;;;;;;10.03;7.67;;;4.60;99.90;;;4.42;70.89;94246.69;5045357;28;21101;-56
2023/01/21 05:16:23;;;;;;;10.20;8.07;;;4.60;99.90;;;4.41;70.89;94255.44;5045333;28;20922;-55
2023/01/21 05:18:52;;;;;;;9.90;8.40;;;4.60;99.90;;;4.38;70.96;94258.28;5045294;28;20479;-56
2023/01/21 05:21:19;;;;;;;8.47;7.47;;;4.60;99.90;;;4.39;70.58;94262.56;5045485;28;20837;-57
2023/01/21 05:23:46;;;;;;;9.50;7.67;;;4.60;99.90;;;4.37;71.16;94260.06;5041506;28;20479;-56
2023/01/21 05:26:13;;;;;;;12.90;8.10;;;4.50;99.90;;;4.34;70.80;94259.44;5041606;28;20484;-53
2023/01/21 05:28:41;;;;;;;9.10;7.80;;;4.50;99.90;;;4.30;70.99;94264.06;5041623;28;20491;-58
2023/01/21 05:31:08;;;;;;;9.70;7.50;;;4.50;99.90;;;4.26;70.79;94273.91;5041732;28;20968;-55
2023/01/21 05:33:35;;;;;;;10.03;9.03;;;4.50;99.90;;;4.26;70.96;94268.69;5044661;28;20468;-54
2023/01/21 05:36:05;;;;;;;16.67;8.30;;;4.40;99.90;;;4.27;71.46;94274.72;5045286;28;20499;-55
2023/01/21 05:38:32;;;;;;;17.10;12.80;;;4.40;99.90;;;4.27;70.98;94278.13;5045010;28;20526;-55
2023/01/21 05:41:00;;;;;;;16.50;14.57;;;4.50;99.90;;;4.27;71.13;94265.13;5045924;28;20452;-57
2023/01/21 05:43:27;;;;;;;14.20;10.90;;;4.50;99.90;;;4.27;71.00;94262.53;5045315;28;20464;-55
2023/01/21 05:45:54;;;;;;;13.67;10.43;;;4.50;99.90;;;4.27;70.92;94274.72;5045561;28;20778;-59
2023/01/21 05:48:22;;;;;;;12.53;10.73;;;4.50;99.90;;;4.28;70.64;94266.78;5045362;28;20558;-58
2023/01/21 05:50:49;;;;;;;11.93;8.07;;;4.50;99.90;;;4.28;71.22;94279.00;5044897;28;20456;-56
2023/01/21 05:53:18;;;;;;;12.77;8.27;;;4.50;99.90;;;4.25;71.04;94282.66;5044868;28;20498;-56
2023/01/21 05:55:45;;;;;;;12.87;8.63;;;4.50;99.90;;;4.28;71.01;94274.59;5044899;28;20496;-56
2023/01/21 05:58:12;;;;;;;14.90;10.27;;;4.50;99.90;;;4.29;71.03;94268.47;5044808;28;20545;-56
2023/01/21 06:00:40;;;;;;;14.70;8.97;;;4.50;99.90;;;4.29;70.87;94255.44;5045270;28;20471;-56
2023/01/21 06:03:07;;;;;;;10.80;8.30;;;4.50;99.90;;;4.29;70.78;94268.47;5044760;28;20539;-58
2023/01/21 06:05:35;;;;;;;11.00;8.80;;;4.50;99.90;;;4.31;70.79;94270.94;5045209;28;20509;-57
2023/01/21 06:08:02;;;;;;;12.60;9.00;;;4.50;99.90;;;4.31;70.96;94282.19;5044708;28;20467;-57
2023/01/21 06:10:31;;;;;;;10.67;8.83;;;4.50;99.90;;;4.30;71.19;94275.31;5045307;28;20467;-56
2023/01/21 06:12:58;;;;;;;13.20;9.33;;;4.50;99.90;;;4.31;70.83;94269.16;5045282;28;20522;-57
2023/01/21 06:15:25;;;;;;;11.43;10.00;;;4.50;99.90;;;4.33;71.05;94270.84;5045140;28;20562;-54
2023/01/21 06:17:52;;;;;;;17.23;13.07;;;4.50;99.90;;;4.47;71.00;94270.59;5039129;28;21086;-56
2023/01/21 06:20:20;;;;;;;19.53;15.20;;;4.60;99.90;;;4.69;70.88;94274.97;5044450;28;20455;-56
2023/01/21 06:22:47;;;;;;;16.13;12.20;;;4.80;99.90;;;4.90;70.20;94263.84;5044832;28;20479;-57
2023/01/21 06:25:14;;;;;;;15.37;12.40;;;4.90;99.90;;;4.97;69.88;94267.59;5044617;28;20988;-57
2023/01/21 06:27:43;;;;;;;19.13;12.37;;;5.00;99.90;;;5.13;69.92;94277.66;5044991;28;20475;-57
2023/01/21 06:30:13;;;;;;;10.53;9.13;;;5.20;99.90;;;5.50;69.55;94285.13;5044867;28;20448;-56
2023/01/21 06:32:40;;;;;;;14.30;9.83;;;5.50;99.90;;;6.00;69.09;94277.63;5043938;28;21004;-56
2023/01/21 06:35:08;;;;;;;12.57;9.83;;;5.90;99.90;;;6.58;68.37;94286.75;5044047;28;21077;-57
2023/01/21 06:37:36;;;;;;;14.27;10.00;;;6.40;99.90;;;7.15;66.85;94295.78;5045023;28;20525;-57
2023/01/21 06:40:03;;;;;;;15.43;10.23;;;7.00;99.90;;;7.70;66.60;94294.53;5044508;28;20514;-56
2023/01/21 06:42:30;;;;;;;13.13;10.50;;;7.50;99.90;;;8.29;65.32;94297.94;5045194;28;20470;-53
2023/01/21 06:44:59;;;;;;;12.60;8.93;;;8.10;99.90;;;8.88;63.54;94288.16;5045053;28;20897;-56
2023/01/21 06:47:26;;;;;;;11.90;10.10;;;8.70;99.90;;;9.50;62.90;94290.22;5045303;28;20901;-57
2023/01/21 06:49:54;;;;;;;18.50;12.40;;;9.40;99.90;;;10.08;61.46;94291.59;5046942;28;20975;-57
2023/01/21 06:52:21;;;;;;;20.23;11.23;;;9.90;99.90;;;10.62;60.61;94296.78;5048802;28;20509;-57
2023/01/21 06:54:48;;;;;;;25.60;13.13;;;10.60;99.10;;;11.09;59.74;94298.22;5048130;28;20821;-57
2023/01/21 06:57:16;;;;;;;20.03;12.47;;;11.00;98.30;;;11.20;57.84;94302.38;5047230;28;20464;-56
2023/01/21 06:59:43;;;;;;;20.20;13.70;;;11.20;96.30;;;11.00;57.20;94309.66;5044897;28;20504;-56
2023/01/21 07:02:12;;;;;;;14.97;11.63;;;11.10;95.00;;;10.62;57.85;94330.97;5043467;28;20452;-56
2023/01/21 07:04:39;;;;;;;19.63;13.40;;;10.80;95.20;;;10.27;58.09;94324.78;5046078;28;20563;-57
2023/01/21 07:07:06;;;;;;;22.03;13.30;;;10.50;95.40;;;10.04;58.09;94324.41;5048316;28;20455;-59
2023/01/21 07:09:34;;;;;;;19.67;12.57;;;10.30;95.30;;;9.94;58.96;94303.44;5043863;28;20471;-55
2023/01/21 07:12:01;;;;;;;17.70;13.17;;;10.20;96.10;;;10.03;57.63;94310.44;5045830;28;20463;-56
2023/01/21 07:14:28;;;;;;;16.67;11.83;;;10.30;95.20;;;10.44;57.88;94309.16;5047354;28;20468;-56
2023/01/21 07:16:56;;;;;;;19.93;12.47;;;10.60;95.30;;;11.04;58.15;94306.56;5040622;28;20487;-57
2023/01/21 07:19:24;;;;;;;18.80;13.10;;;11.10;96.10;;;11.74;56.81;94310.81;5047599;28;20468;-56
2023/01/21 07:21:51;;;;;;;19.73;13.93;;;11.80;95.20;;;12.36;56.14;94310.44;5045738;28;20557;-56
2023/01/21 07:24:19;;;;;;;23.80;15.27;;;12.50;95.00;;;12.76;54.94;94302.66;5044625;28;20959;-57
2023/01/21 07:26:47;;;;;;;26.73;14.10;;;12.90;93.70;;;12.99;54.07;94309.88;5045231;28;20960;-55
2023/01/21 07:29:15;;;;;;;23.17;14.67;;;13.30;92.90;;;13.19;53.72;94313.78;5042430;28;20471;-56
2023/01/21 07:31:42;;;;;;;22.93;15.13;;;13.50;92.40;;;13.30;53.22;94311.78;5046934;28;20495;-54
2023/01/21 07:34:09;;;;;;;22.33;13.00;;;13.70;91.40;;;13.37;53.12;94297.75;5044096;28;20506;-56
2023/01/21 07:36:38;;;;;;;26.13;15.53;;;13.80;90.90;;;13.73;52.24;94286.69;5047464;28;20843;-58
2023/01/21 07:39:05;;;;;;;24.50;13.87;;;14.10;90.20;;;14.24;51.05;94286.19;5045396;28;20544;-56
2023/01/21 07:41:32;;;;;;;84.27;16.20;;;14.40;87.90;;;14.78;50.65;94302.97;5044991;28;20490;-57
2023/01/21 07:44:00;;;;;;;23.70;14.63;;;14.90;87.90;;;15.25;48.93;94291.25;5047166;28;20476;-57
2023/01/21 07:46:27;;;;;;;32.70;14.37;;;15.20;85.30;;;15.61;48.90;94293.13;5044706;28;20505;-55
2023/01/21 07:48:54;;;;;;;19.60;12.87;;;15.50;83.50;;;15.99;48.30;94295.66;5046150;28;21162;-57
2023/01/21 07:51:21;;;;;;;19.97;12.60;;;15.80;82.60;;;16.36;47.77;94290.28;5044698;28;20448;-54
2023/01/21 07:53:50;;;;;;;17.83;13.10;;;16.20;80.50;;;16.71;46.55;94290.41;5044322;28;20472;-57
2023/01/21 07:56:19;;;;;;;20.50;13.90;;;16.50;78.40;;;17.06;45.52;94304.59;5041812;28;20493;-58
2023/01/21 07:58:46;;;;;;;18.97;13.43;;;16.90;75.70;;;17.33;45.21;94292.28;5038635;28;20535;-57
2023/01/21 08:01:14;;;;;;;13.30;11.50;;;17.10;74.80;;;17.63;44.46;94292.06;5036321;28;20458;-58
2023/01/21 08:03:41;;;;;;;21.07;12.80;;;17.40;72.70;;;17.84;44.53;94279.66;5035024;28;20471;-57
2023/01/21 08:06:09;;;;;;;14.00;11.20;;;17.60;72.20;;;18.00;43.91;94273.16;5035498;28;20536;-61
2023/01/21 08:08:36;;;;;;;13.97;11.03;;;17.80;70.60;;;18.06;43.43;94280.34;5035905;28;20526;-58
2023/01/21 08:11:05;;;;;;;13.97;10.90;;;17.90;69.70;;;18.34;43.08;94292.72;5035361;28;20448;-56
2023/01/21 08:13:32;;;;;;;10.13;9.10;;;18.10;69.30;;;18.65;42.28;94297.44;5034695;28;20492;-57
2023/01/21 08:15:59;;;;;;;14.63;11.40;;;18.40;67.20;;;18.85;42.66;94310.81;5033990;28;21027;-57
2023/01/21 08:18:27;;;;;;;20.50;13.33;;;18.50;66.70;;;19.03;42.67;94306.72;5032861;28;20518;-57
2023/01/21 08:20:55;;;;;;;15.77;11.40;;;18.70;66.60;;;19.25;41.91;94289.47;5041133;28;20481;-57
2023/01/21 08:23:22;;;;;;;15.33;11.00;;;19.00;66.10;;;19.52;42.05;94308.91;5034807;28;20563;-57
2023/01/21 08:25:50;;;;;;;16.60;12.60;;;19.20;65.30;;;19.84;40.78;94297.53;5035175;28;20520;-56
2023/01/21 08:28:18;;;;;;;12.50;10.67;;;19.50;64.20;;;20.10;40.60;94317.97;5033948;28;20468;-56
2023/01/21 08:30:45;;;;;;;12.20;10.10;;;19.80;63.10;;;20.37;40.19;94309.81;5035877;28;20432;-57
2023/01/21 08:33:13;;;;;;;14.90;11.53;;;20.00;63.00;;;20.66;39.60;94302.28;5031445;28;20469;-57
2023/01/21 08:35:40;;;;;;;12.20;10.67;;;20.30;60.70;;;20.94;39.37;94302.69;5032659;28;20484;-58
2023/01/21 08:38:07;;;;;;;11.27;10.07;;;20.50;60.40;;;21.11;38.75;94313.63;5035661;28;20473;-56
2023/01/21 08:40:35;;;;;;;13.73;10.33;;;20.70;59.30;;;21.01;38.49;94323.22;5036943;28;20463;-55
2023/01/21 08:43:04;;;;;;;10.13;8.93;;;20.80;58.30;;;20.77;38.51;94315.78;5035042;28;20467;-56
2023/01/21 08:45:33;;;;;;;12.93;10.33;;;20.60;57.50;;;20.60;38.64;94317.28;5034003;28;20480;-56
2023/01/21 08:48:02;;;;;;;10.70;9.30;;;20.50;57.70;;;20.57;38.53;94301.69;5034360;28;20883;-55
2023/01/21 08:50:30;;;;;;;12.97;9.33;;;20.40;57.40;;;20.58;38.85;94316.69;5032324;28;20544;-57
2023/01/21 08:52:57;;;;;;;8.77;7.50;;;20.40;57.80;;;20.42;38.70;94310.81;5035612;28;20460;-56
2023/01/21 08:55:25;;;;;;;9.37;7.70;;;20.20;57.00;;;20.10;38.67;94317.16;5034378;28;20546;-57
2023/01/21 08:57:53;;;;;;;5.00;4.53;;;20.10;56.10;;;20.00;37.86;94312.25;5032475;28;20464;-55
2023/01/21 09:00:21;;;;;;;6.53;4.00;;;19.90;55.20;;;19.89;38.35;94308.41;5032699;28;20550;-59
2023/01/21 09:02:50;;;;;;;4.40;3.83;;;19.80;55.50;;;19.68;37.99;94317.50;5036774;28;20472;-59
2023/01/21 09:05:17;;;;;;;3.83;3.47;;;19.60;55.30;;;19.58;37.61;94315.28;5034389;28;20508;-61
2023/01/21 09:07:45;;;;;;;30.10;19.70;;;19.40;54.70;;;19.49;38.06;94317.31;5035959;28;20480;-58
2023/01/21 09:10:59;;;;;;;4.20;3.80;;;19.30;55.10;;;19.38;37.75;94307.31;5036719;28;20482;-57
2023/01/21 09:13:04;;;;;;;4.67;4.17;;;19.20;53.90;;;19.07;38.18;94303.44;5035571;28;20997;-57
2023/01/21 09:15:31;;;;;;;4.20;3.23;;;18.90;54.60;;;18.61;38.63;94302.38;5030874;28;20464;-58
2023/01/21 09:18:00;;;;;;;2.67;2.17;;;18.50;54.90;;;18.02;38.00;94289.78;5037947;28;20546;-57
2023/01/21 09:20:27;;;;;;;3.00;2.80;;;18.00;53.80;;;17.42;39.91;94308.09;5037265;28;20478;-57
2023/01/21 09:22:54;;;;;;;3.20;2.90;;;17.60;55.40;;;17.31;40.43;94314.78;5035759;28;21020;-59
2023/01/21 09:25:22;;;;;;;3.00;2.80;;;17.30;56.30;;;17.36;40.36;94302.53;5039753;28;20472;-56
2023/01/21 09:27:49;;;;;;;3.80;3.50;;;17.20;56.50;;;17.53;39.77;94295.06;5040497;28;20498;-57
2023/01/21 09:30:17;;;;;;;3.63;3.37;;;17.30;56.90;;;17.77;39.66;94295.59;5043539;28;20482;-61
2023/01/21 09:32:44;;;;;;;4.43;3.13;;;17.50;56.90;;;18.01;39.16;94288.13;5039163;28;20471;-58
2023/01/21 09:35:13;;;;;;;2.70;2.50;;;17.70;56.80;;;18.35;39.17;94283.72;5039047;28;20487;-59
2023/01/21 09:37:40;;;;;;;3.33;3.10;;;17.90;56.30;;;18.57;38.34;94276.34;5036531;28;20491;-57
2023/01/21 09:40:14;;;;;;;6.53;3.37;;;18.20;55.10;;;18.62;37.49;94258.75;5041062;28;20476;-55
2023/01/21 09:42:42;;;;;;;4.43;3.20;;;18.30;54.60;;;18.75;38.01;94257.91;5043814;28;20570;-58
2023/01/21 09:45:10;;;;;;;3.93;3.63;;;18.40;55.10;;;19.16;38.16;94269.38;5042095;28;20539;-59
2023/01/21 09:47:39;;;;;;;3.63;3.33;;;18.70;55.70;;;19.64;37.26;94277.06;5039591;28;20478;-58
2023/01/21 09:50:12;;;;;;;4.67;3.67;;;19.10;54.50;;;19.80;36.56;94273.13;5044444;28;21035;-57
2023/01/21 09:52:42;;;;;;;4.30;3.87;;;19.40;54.10;;;19.99;37.14;94274.06;5043128;28;20479;-60
2023/01/21 09:55:15;;;;;;;4.30;3.97;;;19.50;54.10;;;20.26;36.59;94281.94;5043785;28;20865;-58
2023/01/21 09:58:03;;;;;;;8.63;3.67;;;19.80;53.80;;;20.45;35.85;94266.00;5042027;28;20503;-58
2023/01/21 10:00:34;;;;;;;3.77;3.10;;;20.00;52.00;;;20.59;35.56;94256.88;5040707;28;20555;-56
2023/01/21 10:03:09;;;;;;;4.37;3.30;;;20.20;52.20;;;20.61;35.29;94252.13;5041845;28;20529;-58
2023/01/21 10:06:15;;;;;;;5.03;3.73;;;20.30;51.60;;;20.69;35.20;94241.19;5043917;28;20460;-57
2023/01/21 10:09:05;;;;;;;5.70;4.30;;;20.30;51.90;;;20.98;35.47;94238.09;5038781;28;20481;-59
2023/01/21 10:11:46;;;;;;;4.57;2.70;;;20.50;52.30;;;21.40;34.47;94241.75;5043964;28;20447;-57
2023/01/21 10:14:31;;;;;;;2.20;2.10;;;20.80;51.60;;;21.65;34.51;94246.25;5040737;28;20489;-56
2023/01/21 10:17:03;;;;;;;4.23;2.73;;;21.10;51.00;;;21.90;34.65;94246.16;5040240;28;20545;-59
2023/01/21 10:19:35;;;;;;;7.20;5.50;;;21.40;50.70;;;22.19;33.88;94252.56;5044758;28;20478;-60
2023/01/21 10:22:05;;;;;;;3.87;2.50;;;21.70;49.70;;;22.26;31.87;94248.97;5044519;28;20444;-57
2023/01/21 10:24:37;;;;;;;2.47;1.93;;;21.80;47.70;;;21.92;33.31;94246.75;5047390;28;20471;-59
2023/01/21 10:27:05;;;;;;;3.50;2.77;;;21.60;49.10;;;21.53;33.64;94245.38;5047485;28;20539;-55
2023/01/21 10:29:32;;;;;;;2.77;2.30;;;21.40;48.70;;;21.30;34.27;94242.28;5048947;28;20468;-56
2023/01/21 10:32:02;;;;;;;3.50;2.67;;;21.20;49.40;;;21.07;33.84;94242.94;5048057;28;20452;-58